sensor_id;sensor_type;location;lat;lon;timestamp;P1;durP1;ratioP1;P2;durP2;ratioP2
1685;SDS011;840;47.980;7.830;2024-03-25T00:00:31;3.67;;;1.77;;
1685;SDS011;840;47.980;7.830;2024-03-25T00:02:59;3.57;;;2.23;;
1685;SDS011;840;47.980;7.830;2024-03-25T00:05:24;8.20;;;1.60;;
1685;SDS011;840;47.980;7.830;2024-03-25T00:07:52;5.00;;;1.70;;
1685;SDS011;840;47.980;7.830;2024-03-25T00:10:19;4.90;;;1.70;;
1685;SDS011;840;47.980;7.830;2024-03-25T00:12:46;2.57;;;1.93;;
1685;SDS011;840;47.980;7.830;2024-03-25T00:15:12;7.27;;;1.63;;
1685;SDS011;840;47.980;7.830;2024-03-25T00:17:39;6.13;;;2.50;;
1685;SDS011;840;47.980;7.830;2024-03-25T00:20:05;3.53;;;2.27;;
1685;SDS011;840;47.980;7.830;2024-03-25T00:22:34;2.00;;;1.80;;
1685;SDS011;840;47.980;7.830;2024-03-25T00:25:00;1.90;;;1.80;;
1685;SDS011;840;47.980;7.830;2024-03-25T00:27:28;1.93;;;1.73;;
1685;SDS011;840;47.980;7.830;2024-03-25T00:29:55;3.93;;;1.93;;
1685;SDS011;840;47.980;7.830;2024-03-25T00:32:21;3.00;;;1.97;;
1685;SDS011;840;47.980;7.830;2024-03-25T00:34:47;4.03;;;2.00;;
1685;SDS011;840;47.980;7.830;2024-03-25T00:37:14;3.90;;;2.03;;
1685;SDS011;840;47.980;7.830;2024-03-25T00:39:40;6.43;;;2.40;;
1685;SDS011;840;47.980;7.830;2024-03-25T00:42:06;2.53;;;1.77;;
1685;SDS011;840;47.980;7.830;2024-03-25T00:44:33;2.20;;;1.97;;
1685;SDS011;840;47.980;7.830;2024-03-25T00:47:00;4.70;;;1.60;;
1685;SDS011;840;47.980;7.830;2024-03-25T00:49:26;1.13;;;1.13;;
1685;SDS011;840;47.980;7.830;2024-03-25T00:51:53;3.00;;;1.97;;
1685;SDS011;840;47.980;7.830;2024-03-25T00:54:19;2.93;;;2.20;;
1685;SDS011;840;47.980;7.830;2024-03-25T00:56:45;1.93;;;1.73;;
1685;SDS011;840;47.980;7.830;2024-03-25T00:59:11;2.57;;;2.37;;
1685;SDS011;840;47.980;7.830;2024-03-25T01:01:39;5.03;;;2.17;;
1685;SDS011;840;47.980;7.830;2024-03-25T01:04:05;5.43;;;2.40;;
1685;SDS011;840;47.980;7.830;2024-03-25T01:06:32;4.17;;;2.17;;
1685;SDS011;840;47.980;7.830;2024-03-25T01:08:58;1.70;;;1.60;;
1685;SDS011;840;47.980;7.830;2024-03-25T01:11:25;2.03;;;1.70;;
1685;SDS011;840;47.980;7.830;2024-03-25T01:13:51;2.70;;;2.27;;
1685;SDS011;840;47.980;7.830;2024-03-25T01:16:18;4.03;;;2.40;;
1685;SDS011;840;47.980;7.830;2024-03-25T01:18:45;1.77;;;1.67;;
1685;SDS011;840;47.980;7.830;2024-03-25T01:21:11;1.90;;;1.80;;
1685;SDS011;840;47.980;7.830;2024-03-25T01:23:37;1.63;;;1.47;;
1685;SDS011;840;47.980;7.830;2024-03-25T01:26:04;6.23;;;2.50;;
1685;SDS011;840;47.980;7.830;2024-03-25T01:28:29;5.80;;;2.23;;
1685;SDS011;840;47.980;7.830;2024-03-25T01:30:56;2.40;;;2.30;;
1685;SDS011;840;47.980;7.830;2024-03-25T01:33:22;3.10;;;1.77;;
1685;SDS011;840;47.980;7.830;2024-03-25T01:35:50;4.60;;;1.97;;
1685;SDS011;840;47.980;7.830;2024-03-25T01:38:16;2.20;;;1.90;;
1685;SDS011;840;47.980;7.830;2024-03-25T01:40:43;2.00;;;1.80;;
1685;SDS011;840;47.980;7.830;2024-03-25T01:43:10;4.93;;;1.60;;
1685;SDS011;840;47.980;7.830;2024-03-25T01:45:36;1.67;;;1.57;;
1685;SDS011;840;47.980;7.830;2024-03-25T01:48:04;2.20;;;1.70;;
1685;SDS011;840;47.980;7.830;2024-03-25T01:50:33;3.37;;;1.83;;
1685;SDS011;840;47.980;7.830;2024-03-25T01:53:02;3.10;;;2.10;;
1685;SDS011;840;47.980;7.830;2024-03-25T01:55:30;2.40;;;1.80;;
1685;SDS011;840;47.980;7.830;2024-03-25T01:57:57;2.60;;;2.00;;
1685;SDS011;840;47.980;7.830;2024-03-25T02:00:24;2.67;;;2.47;;
1685;SDS011;840;47.980;7.830;2024-03-25T02:02:51;3.73;;;2.30;;
1685;SDS011;840;47.980;7.830;2024-03-25T02:05:19;1.87;;;1.77;;
1685;SDS011;840;47.980;7.830;2024-03-25T02:07:46;3.10;;;2.30;;
1685;SDS011;840;47.980;7.830;2024-03-25T02:10:14;3.00;;;2.80;;
1685;SDS011;840;47.980;7.830;2024-03-25T02:12:40;2.70;;;2.43;;
1685;SDS011;840;47.980;7.830;2024-03-25T02:15:08;2.07;;;1.87;;
1685;SDS011;840;47.980;7.830;2024-03-25T02:17:34;3.93;;;1.90;;
1685;SDS011;840;47.980;7.830;2024-03-25T02:20:00;1.93;;;1.70;;
1685;SDS011;840;47.980;7.830;2024-03-25T02:22:28;4.53;;;1.63;;
1685;SDS011;840;47.980;7.830;2024-03-25T02:24:55;2.80;;;1.80;;
1685;SDS011;840;47.980;7.830;2024-03-25T02:27:24;3.33;;;2.23;;
1685;SDS011;840;47.980;7.830;2024-03-25T02:29:53;3.40;;;2.00;;
1685;SDS011;840;47.980;7.830;2024-03-25T02:32:19;2.57;;;2.40;;
1685;SDS011;840;47.980;7.830;2024-03-25T02:34:46;3.50;;;2.10;;
1685;SDS011;840;47.980;7.830;2024-03-25T02:37:15;2.53;;;2.33;;
1685;SDS011;840;47.980;7.830;2024-03-25T02:39:42;1.83;;;1.70;;
1685;SDS011;840;47.980;7.830;2024-03-25T02:42:08;2.33;;;1.87;;
1685;SDS011;840;47.980;7.830;2024-03-25T02:44:37;3.20;;;2.07;;
1685;SDS011;840;47.980;7.830;2024-03-25T02:47:03;1.70;;;1.60;;
1685;SDS011;840;47.980;7.830;2024-03-25T02:49:30;2.70;;;2.50;;
1685;SDS011;840;47.980;7.830;2024-03-25T02:51:55;2.30;;;1.90;;
1685;SDS011;840;47.980;7.830;2024-03-25T02:54:22;3.30;;;2.30;;
1685;SDS011;840;47.980;7.830;2024-03-25T02:56:48;2.70;;;2.47;;
1685;SDS011;840;47.980;7.830;2024-03-25T02:59:14;1.80;;;1.70;;
1685;SDS011;840;47.980;7.830;2024-03-25T03:01:42;2.50;;;2.00;;
1685;SDS011;840;47.980;7.830;2024-03-25T03:04:08;1.57;;;1.47;;
1685;SDS011;840;47.980;7.830;2024-03-25T03:06:34;2.40;;;2.20;;
1685;SDS011;840;47.980;7.830;2024-03-25T03:09:01;3.10;;;2.17;;
1685;SDS011;840;47.980;7.830;2024-03-25T03:11:26;3.13;;;1.63;;
1685;SDS011;840;47.980;7.830;2024-03-25T03:13:53;2.50;;;2.30;;
1685;SDS011;840;47.980;7.830;2024-03-25T03:16:19;2.83;;;2.20;;
1685;SDS011;840;47.980;7.830;2024-03-25T03:18:47;4.37;;;2.10;;
1685;SDS011;840;47.980;7.830;2024-03-25T03:21:12;2.77;;;2.57;;
1685;SDS011;840;47.980;7.830;2024-03-25T03:23:39;2.30;;;2.10;;
1685;SDS011;840;47.980;7.830;2024-03-25T03:26:05;2.70;;;2.50;;
1685;SDS011;840;47.980;7.830;2024-03-25T03:28:32;6.93;;;2.10;;
1685;SDS011;840;47.980;7.830;2024-03-25T03:30:58;2.60;;;2.40;;
1685;SDS011;840;47.980;7.830;2024-03-25T03:33:24;3.03;;;2.10;;
1685;SDS011;840;47.980;7.830;2024-03-25T03:35:52;9.63;;;2.80;;
1685;SDS011;840;47.980;7.830;2024-03-25T03:38:21;2.33;;;1.90;;
1685;SDS011;840;47.980;7.830;2024-03-25T03:40:55;3.70;;;2.50;;
1685;SDS011;840;47.980;7.830;2024-03-25T03:43:22;2.70;;;2.13;;
1685;SDS011;840;47.980;7.830;2024-03-25T03:45:48;2.57;;;2.37;;
1685;SDS011;840;47.980;7.830;2024-03-25T03:48:15;3.43;;;2.27;;
1685;SDS011;840;47.980;7.830;2024-03-25T03:50:41;3.63;;;2.70;;
1685;SDS011;840;47.980;7.830;2024-03-25T03:53:09;2.10;;;1.90;;
1685;SDS011;840;47.980;7.830;2024-03-25T03:55:35;2.37;;;2.23;;
1685;SDS011;840;47.980;7.830;2024-03-25T03:58:02;3.47;;;1.90;;
1685;SDS011;840;47.980;7.830;2024-03-25T04:00:28;2.13;;;2.00;;
1685;SDS011;840;47.980;7.830;2024-03-25T04:02:55;5.67;;;2.07;;
1685;SDS011;840;47.980;7.830;2024-03-25T04:05:21;1.97;;;1.87;;
1685;SDS011;840;47.980;7.830;2024-03-25T04:07:48;2.47;;;2.00;;
1685;SDS011;840;47.980;7.830;2024-03-25T04:10:15;4.10;;;2.10;;
1685;SDS011;840;47.980;7.830;2024-03-25T04:12:41;2.23;;;1.97;;
1685;SDS011;840;47.980;7.830;2024-03-25T04:15:07;2.70;;;2.50;;
1685;SDS011;840;47.980;7.830;2024-03-25T04:17:40;7.10;;;2.23;;
1685;SDS011;840;47.980;7.830;2024-03-25T04:20:06;2.53;;;2.17;;
1685;SDS011;840;47.980;7.830;2024-03-25T04:22:35;5.33;;;1.87;;
1685;SDS011;840;47.980;7.830;2024-03-25T04:25:01;2.03;;;1.93;;
1685;SDS011;840;47.980;7.830;2024-03-25T04:27:30;2.00;;;1.90;;
1685;SDS011;840;47.980;7.830;2024-03-25T04:29:55;4.67;;;2.17;;
1685;SDS011;840;47.980;7.830;2024-03-25T04:32:22;4.37;;;2.43;;
1685;SDS011;840;47.980;7.830;2024-03-25T04:34:48;2.63;;;1.93;;
1685;SDS011;840;47.980;7.830;2024-03-25T04:37:15;2.87;;;2.07;;
1685;SDS011;840;47.980;7.830;2024-03-25T04:39:41;2.30;;;1.50;;
1685;SDS011;840;47.980;7.830;2024-03-25T04:42:06;2.60;;;2.40;;
1685;SDS011;840;47.980;7.830;2024-03-25T04:44:33;3.53;;;1.83;;
1685;SDS011;840;47.980;7.830;2024-03-25T04:46:59;1.73;;;1.63;;
1685;SDS011;840;47.980;7.830;2024-03-25T04:49:25;5.30;;;3.40;;
1685;SDS011;840;47.980;7.830;2024-03-25T04:51:51;3.97;;;2.13;;
1685;SDS011;840;47.980;7.830;2024-03-25T04:54:17;3.50;;;1.97;;
1685;SDS011;840;47.980;7.830;2024-03-25T04:56:42;4.80;;;1.93;;
1685;SDS011;840;47.980;7.830;2024-03-25T04:59:09;2.60;;;1.80;;
1685;SDS011;840;47.980;7.830;2024-03-25T05:01:36;1.63;;;1.50;;
1685;SDS011;840;47.980;7.830;2024-03-25T05:04:02;2.60;;;2.00;;
1685;SDS011;840;47.980;7.830;2024-03-25T05:06:28;2.33;;;1.90;;
1685;SDS011;840;47.980;7.830;2024-03-25T05:08:53;2.10;;;1.90;;
1685;SDS011;840;47.980;7.830;2024-03-25T05:11:19;2.40;;;1.57;;
1685;SDS011;840;47.980;7.830;2024-03-25T05:13:45;1.83;;;1.70;;
1685;SDS011;840;47.980;7.830;2024-03-25T05:16:11;2.57;;;2.37;;
1685;SDS011;840;47.980;7.830;2024-03-25T05:18:38;4.90;;;2.10;;
1685;SDS011;840;47.980;7.830;2024-03-25T05:21:04;5.13;;;1.77;;
1685;SDS011;840;47.980;7.830;2024-03-25T05:23:30;2.80;;;1.97;;
1685;SDS011;840;47.980;7.830;2024-03-25T05:25:55;4.73;;;1.90;;
1685;SDS011;840;47.980;7.830;2024-03-25T05:28:21;3.93;;;2.10;;
1685;SDS011;840;47.980;7.830;2024-03-25T05:30:47;2.70;;;1.40;;
1685;SDS011;840;47.980;7.830;2024-03-25T05:33:13;4.80;;;2.43;;
1685;SDS011;840;47.980;7.830;2024-03-25T05:35:40;4.80;;;2.00;;
1685;SDS011;840;47.980;7.830;2024-03-25T05:38:06;2.50;;;1.87;;
1685;SDS011;840;47.980;7.830;2024-03-25T05:40:32;2.17;;;1.70;;
1685;SDS011;840;47.980;7.830;2024-03-25T05:42:58;2.50;;;2.17;;
1685;SDS011;840;47.980;7.830;2024-03-25T05:45:24;3.10;;;2.40;;
1685;SDS011;840;47.980;7.830;2024-03-25T05:47:50;3.33;;;2.10;;
1685;SDS011;840;47.980;7.830;2024-03-25T05:50:16;1.80;;;1.70;;
1685;SDS011;840;47.980;7.830;2024-03-25T05:52:43;3.10;;;2.30;;
1685;SDS011;840;47.980;7.830;2024-03-25T05:55:09;2.77;;;1.63;;
1685;SDS011;840;47.980;7.830;2024-03-25T05:57:35;2.10;;;1.90;;
1685;SDS011;840;47.980;7.830;2024-03-25T06:00:01;2.53;;;1.77;;
1685;SDS011;840;47.980;7.830;2024-03-25T06:02:27;2.73;;;2.03;;
1685;SDS011;840;47.980;7.830;2024-03-25T06:04:53;3.00;;;2.00;;
1685;SDS011;840;47.980;7.830;2024-03-25T06:07:19;2.87;;;2.50;;
1685;SDS011;840;47.980;7.830;2024-03-25T06:09:46;4.30;;;2.23;;
1685;SDS011;840;47.980;7.830;2024-03-25T06:12:12;2.40;;;2.30;;
1685;SDS011;840;47.980;7.830;2024-03-25T06:14:37;2.33;;;2.13;;
1685;SDS011;840;47.980;7.830;2024-03-25T06:17:03;3.70;;;2.50;;
1685;SDS011;840;47.980;7.830;2024-03-25T06:19:29;7.90;;;2.20;;
1685;SDS011;840;47.980;7.830;2024-03-25T06:21:56;1.90;;;1.80;;
1685;SDS011;840;47.980;7.830;2024-03-25T06:24:21;3.07;;;2.30;;
1685;SDS011;840;47.980;7.830;2024-03-25T06:26:49;2.33;;;2.07;;
1685;SDS011;840;47.980;7.830;2024-03-25T06:29:14;2.33;;;2.20;;
1685;SDS011;840;47.980;7.830;2024-03-25T06:31:40;2.47;;;2.23;;
1685;SDS011;840;47.980;7.830;2024-03-25T06:34:25;2.30;;;2.10;;
1685;SDS011;840;47.980;7.830;2024-03-25T06:36:51;2.80;;;2.60;;
1685;SDS011;840;47.980;7.830;2024-03-25T06:39:17;3.13;;;2.50;;
1685;SDS011;840;47.980;7.830;2024-03-25T06:41:42;2.57;;;1.67;;
1685;SDS011;840;47.980;7.830;2024-03-25T06:44:10;3.10;;;2.37;;
1685;SDS011;840;47.980;7.830;2024-03-25T06:46:35;2.13;;;1.90;;
1685;SDS011;840;47.980;7.830;2024-03-25T06:49:01;4.57;;;2.43;;
1685;SDS011;840;47.980;7.830;2024-03-25T06:51:27;4.77;;;2.90;;
1685;SDS011;840;47.980;7.830;2024-03-25T06:53:53;4.43;;;2.20;;
1685;SDS011;840;47.980;7.830;2024-03-25T06:56:19;2.80;;;1.93;;
1685;SDS011;840;47.980;7.830;2024-03-25T06:58:44;3.13;;;2.63;;
1685;SDS011;840;47.980;7.830;2024-03-25T07:01:12;2.10;;;1.90;;
1685;SDS011;840;47.980;7.830;2024-03-25T07:03:38;6.30;;;2.40;;
1685;SDS011;840;47.980;7.830;2024-03-25T07:06:04;2.40;;;2.20;;
1685;SDS011;840;47.980;7.830;2024-03-25T07:08:30;3.70;;;2.47;;
1685;SDS011;840;47.980;7.830;2024-03-25T07:10:57;3.17;;;2.97;;
1685;SDS011;840;47.980;7.830;2024-03-25T07:13:22;4.20;;;2.77;;
1685;SDS011;840;47.980;7.830;2024-03-25T07:15:48;3.30;;;2.13;;
1685;SDS011;840;47.980;7.830;2024-03-25T07:18:16;3.10;;;2.10;;
1685;SDS011;840;47.980;7.830;2024-03-25T07:20:42;2.87;;;2.43;;
1685;SDS011;840;47.980;7.830;2024-03-25T07:23:09;2.70;;;2.50;;
1685;SDS011;840;47.980;7.830;2024-03-25T07:25:35;3.77;;;2.60;;
1685;SDS011;840;47.980;7.830;2024-03-25T07:28:01;4.20;;;2.47;;
1685;SDS011;840;47.980;7.830;2024-03-25T07:30:27;2.80;;;2.20;;
1685;SDS011;840;47.980;7.830;2024-03-25T07:32:53;3.50;;;2.00;;
1685;SDS011;840;47.980;7.830;2024-03-25T07:35:20;2.37;;;2.17;;
1685;SDS011;840;47.980;7.830;2024-03-25T07:37:46;2.50;;;2.30;;
1685;SDS011;840;47.980;7.830;2024-03-25T07:40:12;2.70;;;2.20;;
1685;SDS011;840;47.980;7.830;2024-03-25T07:42:38;2.67;;;2.47;;
1685;SDS011;840;47.980;7.830;2024-03-25T07:45:04;2.40;;;2.20;;
1685;SDS011;840;47.980;7.830;2024-03-25T07:47:31;2.93;;;2.33;;
1685;SDS011;840;47.980;7.830;2024-03-25T07:49:57;1.80;;;1.70;;
1685;SDS011;840;47.980;7.830;2024-03-25T07:52:25;3.57;;;2.27;;
1685;SDS011;840;47.980;7.830;2024-03-25T07:54:51;2.70;;;2.23;;
1685;SDS011;840;47.980;7.830;2024-03-25T07:57:17;3.30;;;1.70;;
1685;SDS011;840;47.980;7.830;2024-03-25T07:59:46;2.87;;;2.67;;
1685;SDS011;840;47.980;7.830;2024-03-25T08:02:12;1.90;;;1.80;;
1685;SDS011;840;47.980;7.830;2024-03-25T08:04:38;1.80;;;1.60;;
1685;SDS011;840;47.980;7.830;2024-03-25T08:07:04;2.90;;;2.23;;
1685;SDS011;840;47.980;7.830;2024-03-25T08:09:31;2.50;;;1.90;;
1685;SDS011;840;47.980;7.830;2024-03-25T08:11:57;2.43;;;1.67;;
1685;SDS011;840;47.980;7.830;2024-03-25T08:14:22;2.70;;;2.47;;
1685;SDS011;840;47.980;7.830;2024-03-25T08:16:48;2.20;;;2.07;;
1685;SDS011;840;47.980;7.830;2024-03-25T08:19:14;2.97;;;1.93;;
1685;SDS011;840;47.980;7.830;2024-03-25T08:21:40;2.77;;;2.23;;
1685;SDS011;840;47.980;7.830;2024-03-25T08:24:06;2.53;;;2.33;;
1685;SDS011;840;47.980;7.830;2024-03-25T08:26:33;3.33;;;2.00;;
1685;SDS011;840;47.980;7.830;2024-03-25T08:28:59;3.43;;;2.00;;
1685;SDS011;840;47.980;7.830;2024-03-25T08:31:25;4.47;;;2.40;;
1685;SDS011;840;47.980;7.830;2024-03-25T08:33:51;5.50;;;1.97;;
1685;SDS011;840;47.980;7.830;2024-03-25T08:36:16;2.50;;;2.07;;
1685;SDS011;840;47.980;7.830;2024-03-25T08:38:43;2.90;;;2.67;;
1685;SDS011;840;47.980;7.830;2024-03-25T08:41:08;2.43;;;2.20;;
1685;SDS011;840;47.980;7.830;2024-03-25T08:43:36;2.97;;;2.20;;
1685;SDS011;840;47.980;7.830;2024-03-25T08:46:01;2.93;;;1.90;;
1685;SDS011;840;47.980;7.830;2024-03-25T08:48:27;1.57;;;1.47;;
1685;SDS011;840;47.980;7.830;2024-03-25T08:50:53;2.30;;;1.70;;
1685;SDS011;840;47.980;7.830;2024-03-25T08:53:19;2.73;;;1.57;;
1685;SDS011;840;47.980;7.830;2024-03-25T08:55:45;1.63;;;1.40;;
1685;SDS011;840;47.980;7.830;2024-03-25T08:58:12;2.40;;;1.47;;
1685;SDS011;840;47.980;7.830;2024-03-25T09:00:39;2.43;;;1.60;;
1685;SDS011;840;47.980;7.830;2024-03-25T09:03:05;1.50;;;1.40;;
1685;SDS011;840;47.980;7.830;2024-03-25T09:05:30;2.23;;;1.70;;
1685;SDS011;840;47.980;7.830;2024-03-25T09:07:56;3.23;;;1.80;;
1685;SDS011;840;47.980;7.830;2024-03-25T09:10:22;2.07;;;1.40;;
1685;SDS011;840;47.980;7.830;2024-03-25T09:13:06;3.60;;;1.80;;
1685;SDS011;840;47.980;7.830;2024-03-25T09:15:32;1.80;;;1.40;;
1685;SDS011;840;47.980;7.830;2024-03-25T09:17:59;1.80;;;1.33;;
1685;SDS011;840;47.980;7.830;2024-03-25T09:20:25;1.17;;;1.07;;
1685;SDS011;840;47.980;7.830;2024-03-25T09:22:51;3.80;;;1.60;;
1685;SDS011;840;47.980;7.830;2024-03-25T09:25:17;2.70;;;1.33;;
1685;SDS011;840;47.980;7.830;2024-03-25T09:27:45;1.37;;;1.17;;
1685;SDS011;840;47.980;7.830;2024-03-25T09:30:11;1.30;;;1.30;;
1685;SDS011;840;47.980;7.830;2024-03-25T09:32:37;2.63;;;2.20;;
1685;SDS011;840;47.980;7.830;2024-03-25T09:35:05;2.40;;;1.30;;
1685;SDS011;840;47.980;7.830;2024-03-25T09:37:31;2.60;;;1.23;;
1685;SDS011;840;47.980;7.830;2024-03-25T09:39:57;4.63;;;2.20;;
1685;SDS011;840;47.980;7.830;2024-03-25T09:42:25;1.57;;;1.20;;
1685;SDS011;840;47.980;7.830;2024-03-25T09:44:53;1.97;;;1.40;;
1685;SDS011;840;47.980;7.830;2024-03-25T09:47:20;3.03;;;1.30;;
1685;SDS011;840;47.980;7.830;2024-03-25T09:49:46;1.70;;;1.60;;
1685;SDS011;840;47.980;7.830;2024-03-25T09:52:14;3.27;;;1.20;;
1685;SDS011;840;47.980;7.830;2024-03-25T09:54:40;2.60;;;1.60;;
1685;SDS011;840;47.980;7.830;2024-03-25T09:57:06;2.27;;;0.90;;
1685;SDS011;840;47.980;7.830;2024-03-25T09:59:33;2.83;;;1.50;;
1685;SDS011;840;47.980;7.830;2024-03-25T10:01:58;1.50;;;1.40;;
1685;SDS011;840;47.980;7.830;2024-03-25T10:04:26;2.00;;;1.10;;
1685;SDS011;840;47.980;7.830;2024-03-25T10:06:51;2.47;;;1.40;;
1685;SDS011;840;47.980;7.830;2024-03-25T10:09:20;1.60;;;1.37;;
1685;SDS011;840;47.980;7.830;2024-03-25T10:11:47;2.10;;;0.90;;
1685;SDS011;840;47.980;7.830;2024-03-25T10:14:14;1.33;;;1.23;;
1685;SDS011;840;47.980;7.830;2024-03-25T10:16:40;2.73;;;1.20;;
1685;SDS011;840;47.980;7.830;2024-03-25T10:19:06;1.23;;;0.90;;
1685;SDS011;840;47.980;7.830;2024-03-25T10:21:32;2.00;;;0.93;;
1685;SDS011;840;47.980;7.830;2024-03-25T10:23:58;3.77;;;1.40;;
1685;SDS011;840;47.980;7.830;2024-03-25T10:26:26;1.50;;;1.40;;
1685;SDS011;840;47.980;7.830;2024-03-25T10:28:59;2.50;;;1.00;;
1685;SDS011;840;47.980;7.830;2024-03-25T10:31:26;1.93;;;1.20;;
1685;SDS011;840;47.980;7.830;2024-03-25T10:33:52;3.43;;;1.37;;
1685;SDS011;840;47.980;7.830;2024-03-25T10:36:19;1.40;;;0.97;;
1685;SDS011;840;47.980;7.830;2024-03-25T10:38:46;1.80;;;1.43;;
1685;SDS011;840;47.980;7.830;2024-03-25T10:41:16;1.57;;;1.23;;
1685;SDS011;840;47.980;7.830;2024-03-25T10:43:45;1.13;;;1.10;;
1685;SDS011;840;47.980;7.830;2024-03-25T10:46:13;2.53;;;1.57;;
1685;SDS011;840;47.980;7.830;2024-03-25T10:48:42;1.40;;;0.97;;
1685;SDS011;840;47.980;7.830;2024-03-25T10:51:13;1.87;;;1.47;;
1685;SDS011;840;47.980;7.830;2024-03-25T10:53:39;2.20;;;1.27;;
1685;SDS011;840;47.980;7.830;2024-03-25T10:56:08;0.70;;;0.70;;
1685;SDS011;840;47.980;7.830;2024-03-25T10:58:34;1.40;;;1.30;;
1685;SDS011;840;47.980;7.830;2024-03-25T11:01:02;1.30;;;1.20;;
1685;SDS011;840;47.980;7.830;2024-03-25T11:03:28;1.87;;;0.93;;
1685;SDS011;840;47.980;7.830;2024-03-25T11:05:54;2.93;;;2.00;;
1685;SDS011;840;47.980;7.830;2024-03-25T11:08:20;3.40;;;1.20;;
1685;SDS011;840;47.980;7.830;2024-03-25T11:10:56;1.40;;;1.30;;
1685;SDS011;840;47.980;7.830;2024-03-25T11:13:22;4.00;;;1.30;;
1685;SDS011;840;47.980;7.830;2024-03-25T11:15:48;1.70;;;1.60;;
1685;SDS011;840;47.980;7.830;2024-03-25T11:18:17;2.03;;;1.50;;
1685;SDS011;840;47.980;7.830;2024-03-25T11:20:46;0.90;;;0.90;;
1685;SDS011;840;47.980;7.830;2024-03-25T11:23:13;1.97;;;1.17;;
1685;SDS011;840;47.980;7.830;2024-03-25T11:25:40;3.33;;;1.50;;
1685;SDS011;840;47.980;7.830;2024-03-25T11:28:06;1.83;;;1.20;;
1685;SDS011;840;47.980;7.830;2024-03-25T11:30:33;2.00;;;1.50;;
1685;SDS011;840;47.980;7.830;2024-03-25T11:33:00;3.40;;;1.47;;
1685;SDS011;840;47.980;7.830;2024-03-25T11:35:28;1.23;;;1.10;;
1685;SDS011;840;47.980;7.830;2024-03-25T11:37:54;6.40;;;2.10;;
1685;SDS011;840;47.980;7.830;2024-03-25T11:40:20;4.20;;;1.57;;
1685;SDS011;840;47.980;7.830;2024-03-25T11:42:46;1.57;;;1.13;;
1685;SDS011;840;47.980;7.830;2024-03-25T11:45:13;1.23;;;1.13;;
1685;SDS011;840;47.980;7.830;2024-03-25T11:47:40;3.07;;;1.30;;
1685;SDS011;840;47.980;7.830;2024-03-25T11:50:07;1.23;;;1.00;;
1685;SDS011;840;47.980;7.830;2024-03-25T11:52:36;2.17;;;1.50;;
1685;SDS011;840;47.980;7.830;2024-03-25T11:55:03;2.60;;;1.73;;
1685;SDS011;840;47.980;7.830;2024-03-25T11:57:29;2.20;;;1.70;;
1685;SDS011;840;47.980;7.830;2024-03-25T11:59:55;1.53;;;1.43;;
1685;SDS011;840;47.980;7.830;2024-03-25T12:02:22;1.83;;;1.10;;
1685;SDS011;840;47.980;7.830;2024-03-25T12:04:49;1.40;;;1.10;;
1685;SDS011;840;47.980;7.830;2024-03-25T12:07:14;1.63;;;1.53;;
1685;SDS011;840;47.980;7.830;2024-03-25T12:09:42;1.77;;;1.07;;
1685;SDS011;840;47.980;7.830;2024-03-25T12:12:27;1.43;;;1.37;;
1685;SDS011;840;47.980;7.830;2024-03-25T12:14:53;1.93;;;1.23;;
1685;SDS011;840;47.980;7.830;2024-03-25T12:17:19;1.63;;;1.10;;
1685;SDS011;840;47.980;7.830;2024-03-25T12:19:45;1.77;;;1.57;;
1685;SDS011;840;47.980;7.830;2024-03-25T12:22:24;2.07;;;1.17;;
1685;SDS011;840;47.980;7.830;2024-03-25T12:24:51;1.50;;;1.40;;
1685;SDS011;840;47.980;7.830;2024-03-25T12:27:17;1.43;;;1.00;;
1685;SDS011;840;47.980;7.830;2024-03-25T12:29:43;3.10;;;0.97;;
1685;SDS011;840;47.980;7.830;2024-03-25T12:32:09;1.40;;;1.30;;
1685;SDS011;840;47.980;7.830;2024-03-25T12:34:35;1.77;;;0.60;;
1685;SDS011;840;47.980;7.830;2024-03-25T12:37:01;2.50;;;1.40;;
1685;SDS011;840;47.980;7.830;2024-03-25T12:39:27;2.80;;;1.57;;
1685;SDS011;840;47.980;7.830;2024-03-25T12:41:54;1.60;;;1.50;;
1685;SDS011;840;47.980;7.830;2024-03-25T12:44:20;1.20;;;1.10;;
1685;SDS011;840;47.980;7.830;2024-03-25T12:46:46;3.50;;;1.37;;
1685;SDS011;840;47.980;7.830;2024-03-25T12:49:12;2.60;;;1.07;;
1685;SDS011;840;47.980;7.830;2024-03-25T12:51:38;1.90;;;0.80;;
1685;SDS011;840;47.980;7.830;2024-03-25T12:54:03;2.00;;;1.20;;
1685;SDS011;840;47.980;7.830;2024-03-25T12:56:29;1.93;;;1.10;;
1685;SDS011;840;47.980;7.830;2024-03-25T12:58:56;1.07;;;0.70;;
1685;SDS011;840;47.980;7.830;2024-03-25T13:01:22;1.13;;;0.87;;
1685;SDS011;840;47.980;7.830;2024-03-25T13:03:48;2.03;;;0.90;;
1685;SDS011;840;47.980;7.830;2024-03-25T13:06:14;1.93;;;1.57;;
1685;SDS011;840;47.980;7.830;2024-03-25T13:08:40;2.50;;;0.70;;
1685;SDS011;840;47.980;7.830;2024-03-25T13:11:05;2.97;;;1.10;;
1685;SDS011;840;47.980;7.830;2024-03-25T13:13:31;2.83;;;1.00;;
1685;SDS011;840;47.980;7.830;2024-03-25T13:15:58;2.10;;;0.90;;
1685;SDS011;840;47.980;7.830;2024-03-25T13:18:24;1.37;;;0.77;;
1685;SDS011;840;47.980;7.830;2024-03-25T13:20:50;1.83;;;1.07;;
1685;SDS011;840;47.980;7.830;2024-03-25T13:23:16;1.40;;;0.90;;
1685;SDS011;840;47.980;7.830;2024-03-25T13:25:42;1.13;;;0.80;;
1685;SDS011;840;47.980;7.830;2024-03-25T13:28:07;1.70;;;0.90;;
1685;SDS011;840;47.980;7.830;2024-03-25T13:30:33;0.80;;;0.80;;
1685;SDS011;840;47.980;7.830;2024-03-25T13:33:00;1.20;;;0.90;;
1685;SDS011;840;47.980;7.830;2024-03-25T13:35:26;1.77;;;0.97;;
1685;SDS011;840;47.980;7.830;2024-03-25T13:37:52;1.30;;;1.13;;
1685;SDS011;840;47.980;7.830;2024-03-25T13:40:18;0.83;;;0.83;;
1685;SDS011;840;47.980;7.830;2024-03-25T13:42:44;1.20;;;1.10;;
1685;SDS011;840;47.980;7.830;2024-03-25T13:45:09;0.60;;;0.60;;
1685;SDS011;840;47.980;7.830;2024-03-25T13:47:35;1.43;;;1.33;;
1685;SDS011;840;47.980;7.830;2024-03-25T13:50:02;1.17;;;1.00;;
1685;SDS011;840;47.980;7.830;2024-03-25T13:52:29;0.60;;;0.60;;
1685;SDS011;840;47.980;7.830;2024-03-25T13:54:54;1.13;;;0.80;;
1685;SDS011;840;47.980;7.830;2024-03-25T13:57:20;1.30;;;1.03;;
1685;SDS011;840;47.980;7.830;2024-03-25T13:59:46;0.70;;;0.47;;
1685;SDS011;840;47.980;7.830;2024-03-25T14:02:12;0.97;;;0.83;;
1685;SDS011;840;47.980;7.830;2024-03-25T14:04:38;0.97;;;0.97;;
1685;SDS011;840;47.980;7.830;2024-03-25T14:07:05;1.13;;;0.57;;
1685;SDS011;840;47.980;7.830;2024-03-25T14:09:31;0.73;;;0.73;;
1685;SDS011;840;47.980;7.830;2024-03-25T14:11:56;0.77;;;0.77;;
1685;SDS011;840;47.980;7.830;2024-03-25T14:14:22;0.70;;;0.53;;
1685;SDS011;840;47.980;7.830;2024-03-25T14:16:48;1.30;;;0.70;;
1685;SDS011;840;47.980;7.830;2024-03-25T14:19:14;1.87;;;0.87;;
1685;SDS011;840;47.980;7.830;2024-03-25T14:21:40;0.77;;;0.63;;
1685;SDS011;840;47.980;7.830;2024-03-25T14:24:07;0.50;;;0.50;;
1685;SDS011;840;47.980;7.830;2024-03-25T14:26:33;1.07;;;0.90;;
1685;SDS011;840;47.980;7.830;2024-03-25T14:28:59;0.77;;;0.77;;
1685;SDS011;840;47.980;7.830;2024-03-25T14:31:25;1.93;;;0.57;;
1685;SDS011;840;47.980;7.830;2024-03-25T14:33:51;1.40;;;0.90;;
1685;SDS011;840;47.980;7.830;2024-03-25T14:36:17;1.33;;;0.90;;
1685;SDS011;840;47.980;7.830;2024-03-25T14:38:43;1.87;;;0.97;;
1685;SDS011;840;47.980;7.830;2024-03-25T14:41:10;1.40;;;0.80;;
1685;SDS011;840;47.980;7.830;2024-03-25T14:43:37;1.20;;;0.60;;
1685;SDS011;840;47.980;7.830;2024-03-25T14:46:03;2.20;;;0.90;;
1685;SDS011;840;47.980;7.830;2024-03-25T14:48:29;0.90;;;0.90;;
1685;SDS011;840;47.980;7.830;2024-03-25T14:50:55;0.70;;;0.70;;
1685;SDS011;840;47.980;7.830;2024-03-25T14:53:20;1.60;;;0.80;;
1685;SDS011;840;47.980;7.830;2024-03-25T14:55:46;2.37;;;0.90;;
1685;SDS011;840;47.980;7.830;2024-03-25T14:58:13;0.70;;;0.60;;
1685;SDS011;840;47.980;7.830;2024-03-25T15:00:39;0.93;;;0.70;;
1685;SDS011;840;47.980;7.830;2024-03-25T15:03:05;1.50;;;0.80;;
1685;SDS011;840;47.980;7.830;2024-03-25T15:05:31;0.80;;;0.80;;
1685;SDS011;840;47.980;7.830;2024-03-25T15:07:56;0.50;;;0.50;;
1685;SDS011;840;47.980;7.830;2024-03-25T15:10:22;1.03;;;0.67;;
1685;SDS011;840;47.980;7.830;2024-03-25T15:12:48;1.87;;;0.90;;
1685;SDS011;840;47.980;7.830;2024-03-25T15:15:15;1.03;;;0.93;;
1685;SDS011;840;47.980;7.830;2024-03-25T15:17:41;0.97;;;0.97;;
1685;SDS011;840;47.980;7.830;2024-03-25T15:20:07;0.80;;;0.80;;
1685;SDS011;840;47.980;7.830;2024-03-25T15:22:34;0.93;;;0.77;;
1685;SDS011;840;47.980;7.830;2024-03-25T15:24:59;3.55;;;0.90;;